Time;durP1;ratioP1;P1;durP2;ratioP2;P2;SDS_P1;SDS_P2;PMS_P1;PMS_P2;Temp;Humidity;BMP_temperature;BMP_pressure;BME280_temperature;BME280_humidity;BME280_pressure;Samples;Min_cycle;Max_cycle;Signal;HPM_P1;HPM_P2
2024/01/31 00:01:54;;;;;;;9.87;5.97;;;4.10;79.10;;;;;;5086669;28;20196;-80
2024/01/31 00:04:21;;;;;;;9.53;6.60;;;4.10;78.20;;;;;;5078272;28;20189;-80
2024/01/31 00:06:55;;;;;;;8.97;6.43;;;4.20;78.10;;;;;;5086731;28;20192;-80
2024/01/31 00:09:21;;;;;;;10.30;6.53;;;4.20;78.40;;;;;;5082885;28;20566;-80
2024/01/31 00:11:48;;;;;;;9.90;5.93;;;4.20;78.00;;;;;;5083666;28;20199;-79
2024/01/31 00:14:18;;;;;;;10.67;6.17;;;4.20;78.70;;;;;;5088119;28;20201;-81
2024/01/31 00:16:44;;;;;;;9.50;5.80;;;4.30;78.50;;;;;;5080745;28;20228;-80
2024/01/31 00:19:11;;;;;;;9.83;5.97;;;4.20;79.50;;;;;;5082035;28;20212;-80
2024/01/31 00:21:39;;;;;;;11.37;6.43;;;4.20;81.10;;;;;;5084642;28;20198;-80
2024/01/31 00:24:06;;;;;;;7.90;5.63;;;4.10;82.50;;;;;;5078372;28;20197;-80
2024/01/31 00:26:33;;;;;;;10.33;5.90;;;4.10;83.30;;;;;;5086261;28;20223;-80
2024/01/31 00:29:00;;;;;;;8.10;5.57;;;4.10;82.80;;;;;;5083224;28;20669;-80
2024/01/31 00:31:28;;;;;;;8.60;6.07;;;4.20;82.70;;;;;;5087453;28;20215;-80
2024/01/31 00:33:55;;;;;;;9.80;6.00;;;4.30;83.80;;;;;;5086652;28;20626;-82
2024/01/31 00:36:22;;;;;;;8.10;5.70;;;4.40;83.90;;;;;;5083660;28;20711;-83
2024/01/31 00:38:49;;;;;;;8.70;6.10;;;4.50;81.40;;;;;;5088175;28;20213;-82
2024/01/31 00:41:16;;;;;;;11.10;6.10;;;4.60;81.10;;;;;;5083416;28;20193;-82
2024/01/31 00:43:43;;;;;;;9.57;5.70;;;4.60;79.90;;;;;;5087934;28;20197;-82
2024/01/31 00:46:09;;;;;;;11.67;5.67;;;4.70;80.70;;;;;;5090891;28;20204;-82
2024/01/31 00:48:38;;;;;;;10.40;5.93;;;4.70;80.30;;;;;;5086647;28;20208;-82
2024/01/31 00:51:10;;;;;;;9.60;5.20;;;4.70;80.00;;;;;;5087054;28;20196;-82
2024/01/31 00:53:36;;;;;;;8.53;5.33;;;4.80;79.00;;;;;;5084876;28;20197;-82
2024/01/31 00:56:03;;;;;;;9.33;5.60;;;4.80;79.30;;;;;;5084378;28;20236;-83
2024/01/31 00:58:30;;;;;;;7.87;5.47;;;4.90;79.40;;;;;;5084394;28;20227;-82
2024/01/31 01:00:57;;;;;;;7.07;5.07;;;4.90;78.50;;;;;;5081770;28;20203;-81
2024/01/31 01:03:24;;;;;;;8.17;5.47;;;5.00;78.10;;;;;;5086938;28;20203;-82
2024/01/31 01:05:52;;;;;;;7.47;4.67;;;5.00;77.40;;;;;;5087334;28;20278;-82
2024/01/31 01:08:19;;;;;;;6.80;4.77;;;5.10;77.70;;;;;;5085539;28;20533;-82
2024/01/31 01:10:46;;;;;;;7.70;5.00;;;5.10;76.50;;;;;;5086693;28;20212;-82
2024/01/31 01:13:13;;;;;;;6.70;4.83;;;5.00;77.40;;;;;;5084880;28;20197;-82
2024/01/31 01:15:40;;;;;;;6.40;4.60;;;5.00;77.40;;;;;;5089786;28;20200;-82
2024/01/31 01:18:06;;;;;;;7.07;4.77;;;5.00;77.50;;;;;;5088291;28;20220;-82
2024/01/31 01:20:33;;;;;;;6.83;4.90;;;4.90;78.30;;;;;;5082831;28;20209;-82
2024/01/31 01:23:01;;;;;;;7.73;5.00;;;4.80;79.80;;;;;;5087312;28;20669;-82
2024/01/31 01:25:28;;;;;;;7.20;5.13;;;4.80;79.70;;;;;;5082901;28;20199;-82
2024/01/31 01:27:55;;;;;;;6.33;5.07;;;4.80;79.10;;;;;;5090515;28;20205;-82
2024/01/31 01:30:22;;;;;;;6.90;4.97;;;4.70;79.50;;;;;;5088840;28;20280;-82
2024/01/31 01:32:51;;;;;;;7.70;5.27;;;4.70;79.00;;;;;;5085401;28;20205;-82
2024/01/31 01:35:18;;;;;;;8.00;5.40;;;4.70;79.70;;;;;;5091416;28;20637;-82
2024/01/31 01:37:45;;;;;;;8.17;4.93;;;4.60;79.60;;;;;;5087358;28;20225;-82
2024/01/31 01:40:15;;;;;;;11.60;5.40;;;4.50;79.30;;;;;;5088921;28;20192;-82
2024/01/31 01:42:42;;;;;;;7.33;5.17;;;4.50;79.50;;;;;;5080572;28;20197;-82
2024/01/31 01:45:10;;;;;;;7.30;5.03;;;4.40;79.50;;;;;;5081837;28;20198;-82
2024/01/31 01:47:39;;;;;;;7.57;5.30;;;4.40;79.40;;;;;;5079926;28;20204;-82
2024/01/31 01:50:06;;;;;;;9.10;5.10;;;4.40;78.90;;;;;;5084433;28;20197;-79
2024/01/31 01:52:34;;;;;;;8.60;5.33;;;4.30;79.00;;;;;;5081402;28;20295;-81
2024/01/31 01:55:03;;;;;;;9.17;5.47;;;4.30;80.00;;;;;;5084503;28;20201;-81
2024/01/31 01:57:33;;;;;;;7.43;4.97;;;4.20;79.40;;;;;;5080749;28;20678;-81
2024/01/31 02:00:00;;;;;;;6.10;4.57;;;4.20;79.40;;;;;;5086703;28;20200;-81
2024/01/31 02:02:28;;;;;;;9.03;5.00;;;4.10;79.50;;;;;;5086312;28;20208;-81
2024/01/31 02:04:55;;;;;;;5.83;4.30;;;4.10;80.00;;;;;;5087973;28;20524;-81
2024/01/31 02:07:26;;;;;;;6.73;4.70;;;4.00;80.10;;;;;;5089374;28;20192;-81
2024/01/31 02:09:53;;;;;;;6.07;4.03;;;4.00;80.60;;;;;;5084175;28;20231;-80
2024/01/31 02:12:20;;;;;;;6.83;4.30;;;3.90;79.90;;;;;;5075820;28;20246;-80
2024/01/31 02:14:49;;;;;;;5.50;4.20;;;3.90;79.80;;;;;;5084045;28;20196;-79
2024/01/31 02:17:15;;;;;;;5.70;3.90;;;3.90;79.80;;;;;;5084723;28;20216;-79
2024/01/31 02:19:42;;;;;;;7.57;4.53;;;3.80;80.50;;;;;;5087187;28;20599;-80
2024/01/31 02:22:16;;;;;;;7.20;4.30;;;3.70;81.20;;;;;;5080143;28;20197;-79
2024/01/31 02:24:43;;;;;;;6.10;4.07;;;3.70;81.50;;;;;;5087086;28;20992;-80
2024/01/31 02:27:10;;;;;;;7.80;4.10;;;3.60;81.10;;;;;;5078984;28;20201;-80
2024/01/31 02:29:37;;;;;;;6.07;4.30;;;3.60;81.30;;;;;;5086113;28;20204;-81
2024/01/31 02:32:06;;;;;;;5.00;3.50;;;3.60;81.30;;;;;;5084673;28;20215;-79
2024/01/31 02:34:34;;;;;;;5.90;4.17;;;3.50;81.70;;;;;;5084926;28;20196;-80
2024/01/31 02:37:00;;;;;;;5.30;4.07;;;3.50;82.00;;;;;;5087820;28;20223;-80
2024/01/31 02:39:36;;;;;;;6.27;4.00;;;3.50;81.60;;;;;;5083756;28;20192;-80
2024/01/31 02:42:03;;;;;;;6.43;4.17;;;3.50;82.00;;;;;;5082468;28;20232;-80
2024/01/31 02:44:30;;;;;;;5.43;4.07;;;3.50;82.70;;;;;;5086906;28;20204;-80
2024/01/31 02:46:57;;;;;;;5.57;3.90;;;3.60;83.40;;;;;;5087902;28;20208;-80
2024/01/31 02:49:24;;;;;;;7.07;4.30;;;3.60;82.70;;;;;;5085050;28;20207;-80
2024/01/31 02:51:52;;;;;;;5.63;3.60;;;3.70;82.40;;;;;;5085286;28;20208;-80
2024/01/31 02:54:18;;;;;;;6.03;3.70;;;3.70;81.90;;;;;;5085183;28;20208;-80
2024/01/31 02:56:46;;;;;;;6.20;4.00;;;3.80;82.40;;;;;;5078881;28;20308;-80
2024/01/31 02:59:13;;;;;;;5.83;3.70;;;3.80;82.20;;;;;;5084074;28;20208;-81
2024/01/31 03:01:45;;;;;;;8.20;4.20;;;3.90;81.80;;;;;;5083495;28;20199;-80
2024/01/31 03:04:11;;;;;;;5.27;3.70;;;4.00;80.90;;;;;;5089320;28;20192;-80
2024/01/31 03:06:38;;;;;;;7.97;4.43;;;4.10;79.90;;;;;;5087405;28;20840;-80
2024/01/31 03:09:05;;;;;;;8.33;3.73;;;4.00;79.80;;;;;;5081019;28;20212;-80
2024/01/31 03:11:32;;;;;;;5.67;4.07;;;3.90;80.70;;;;;;5079905;28;20201;-80
2024/01/31 03:14:00;;;;;;;5.30;3.97;;;3.80;81.10;;;;;;5088824;28;20261;-79
2024/01/31 03:16:27;;;;;;;5.00;3.70;;;3.70;81.40;;;;;;5083344;28;20193;-80
2024/01/31 03:18:56;;;;;;;8.23;4.10;;;3.70;81.70;;;;;;5090158;28;20576;-79
2024/01/31 03:21:22;;;;;;;6.40;4.20;;;3.70;82.00;;;;;;5088008;28;20197;-79
2024/01/31 03:23:49;;;;;;;5.97;3.90;;;3.80;83.20;;;;;;5080010;28;20211;-80
2024/01/31 03:26:16;;;;;;;5.37;3.90;;;3.80;84.70;;;;;;5086741;28;20188;-79
2024/01/31 03:28:42;;;;;;;4.80;3.80;;;3.80;84.40;;;;;;5080128;28;20197;-80
2024/01/31 03:31:11;;;;;;;5.27;4.13;;;3.80;85.10;;;;;;5083550;28;20201;-80
2024/01/31 03:33:37;;;;;;;6.47;3.70;;;3.80;84.30;;;;;;5083866;28;20197;-80
2024/01/31 03:36:05;;;;;;;5.27;4.00;;;3.80;83.90;;;;;;5085288;28;20208;-80
2024/01/31 03:38:32;;;;;;;6.80;4.20;;;4.00;83.40;;;;;;5085119;28;20224;-80
2024/01/31 03:40:59;;;;;;;6.07;4.00;;;4.00;83.20;;;;;;5082804;28;20192;-80
2024/01/31 03:43:25;;;;;;;6.03;3.73;;;4.00;83.10;;;;;;5083396;28;20193;-80
2024/01/31 03:45:52;;;;;;;5.60;3.97;;;3.90;83.70;;;;;;5087448;28;20551;-79
2024/01/31 03:48:20;;;;;;;6.10;4.03;;;3.90;83.50;;;;;;5085100;28;20225;-80
2024/01/31 03:50:47;;;;;;;4.77;3.90;;;3.90;83.90;;;;;;5084573;28;20204;-80
2024/01/31 03:53:14;;;;;;;5.73;4.10;;;3.90;85.00;;;;;;5085644;28;20289;-80
2024/01/31 03:55:41;;;;;;;6.00;3.97;;;3.90;86.20;;;;;;5084290;28;20204;-80
2024/01/31 03:58:10;;;;;;;5.60;3.70;;;3.90;85.00;;;;;;5084389;28;20243;-80
2024/01/31 04:00:37;;;;;;;6.77;4.20;;;4.00;84.20;;;;;;5083095;28;20288;-80
2024/01/31 04:03:03;;;;;;;5.50;4.13;;;4.00;85.90;;;;;;5080690;28;20208;-80
2024/01/31 04:05:32;;;;;;;5.63;4.03;;;3.90;86.30;;;;;;5088052;28;20196;-80
2024/01/31 04:07:58;;;;;;;7.03;3.60;;;4.00;85.00;;;;;;5088388;28;20538;-80
2024/01/31 04:10:26;;;;;;;7.63;4.03;;;4.10;83.60;;;;;;5083767;28;20204;-80
2024/01/31 04:12:53;;;;;;;6.20;3.57;;;4.10;83.80;;;;;;5089166;28;20540;-79
2024/01/31 04:15:20;;;;;;;5.80;4.40;;;4.10;84.30;;;;;;5086090;28;20249;-80
2024/01/31 04:17:47;;;;;;;5.47;4.07;;;4.10;84.10;;;;;;5091855;28;20216;-81
2024/01/31 04:20:13;;;;;;;4.47;3.57;;;4.10;83.70;;;;;;5092987;28;20201;-79
2024/01/31 04:22:41;;;;;;;6.43;3.97;;;4.10;83.60;;;;;;5087718;28;20207;-80
2024/01/31 04:25:08;;;;;;;6.50;3.40;;;4.10;83.00;;;;;;5090671;28;20193;-80
2024/01/31 04:27:36;;;;;;;5.67;3.87;;;4.10;82.50;;;;;;5088535;28;20197;-79
2024/01/31 04:30:04;;;;;;;5.83;4.37;;;4.10;83.00;;;;;;5090952;28;20208;-80
2024/01/31 04:32:30;;;;;;;5.60;4.00;;;4.00;82.30;;;;;;5071694;28;20194;-80
2024/01/31 04:34:57;;;;;;;8.83;4.33;;;4.00;82.20;;;;;;5076617;28;20622;-80
2024/01/31 04:37:24;;;;;;;7.50;4.00;;;4.00;83.10;;;;;;5086914;28;20212;-80
2024/01/31 04:39:52;;;;;;;6.23;4.23;;;4.00;83.60;;;;;;5080611;28;20232;-80
2024/01/31 04:42:19;;;;;;;5.10;3.80;;;3.90;83.90;;;;;;5083893;28;20203;-79
2024/01/31 04:44:46;;;;;;;7.40;4.37;;;3.80;85.10;;;;;;5088308;28;20200;-80
2024/01/31 04:47:13;;;;;;;5.33;3.87;;;3.80;84.40;;;;;;5087026;28;20196;-79
2024/01/31 04:49:40;;;;;;;7.33;4.10;;;3.90;84.50;;;;;;5083156;28;20249;-80
2024/01/31 04:52:11;;;;;;;6.50;4.30;;;4.00;83.70;;;;;;5090958;28;20200;-80
2024/01/31 04:54:39;;;;;;;5.03;4.20;;;4.10;82.50;;;;;;5083358;28;20655;-80
2024/01/31 04:57:07;;;;;;;6.90;4.07;;;4.20;83.30;;;;;;5079314;28;20621;-80
2024/01/31 04:59:37;;;;;;;4.47;3.80;;;4.10;83.60;;;;;;5085183;28;22743;-80
2024/01/31 05:02:04;;;;;;;6.30;3.80;;;4.10;84.90;;;;;;5087957;28;20220;-80
2024/01/31 05:04:31;;;;;;;5.27;3.70;;;4.00;85.40;;;;;;5085630;28;20646;-80
2024/01/31 05:06:58;;;;;;;5.00;3.70;;;4.20;83.60;;;;;;5088998;28;20209;-79
2024/01/31 05:09:25;;;;;;;5.00;3.80;;;4.30;83.60;;;;;;5090625;28;20188;-80
2024/01/31 05:11:52;;;;;;;6.43;3.60;;;4.30;84.80;;;;;;5089633;28;20203;-79
2024/01/31 05:14:21;;;;;;;6.17;3.87;;;4.30;84.70;;;;;;5084272;28;20201;-79
2024/01/31 05:16:48;;;;;;;5.67;3.63;;;4.30;84.80;;;;;;5084603;28;20204;-79
2024/01/31 05:19:15;;;;;;;6.60;3.53;;;4.30;83.10;;;;;;5090199;28;21083;-78
2024/01/31 05:21:45;;;;;;;6.77;3.97;;;4.20;85.00;;;;;;5082883;28;20201;-79
2024/01/31 05:24:12;;;;;;;4.40;3.53;;;4.20;85.90;;;;;;5082741;28;20653;-79
2024/01/31 05:26:38;;;;;;;4.53;3.47;;;4.30;86.20;;;;;;5088390;28;20197;-82
2024/01/31 05:29:05;;;;;;;5.00;3.60;;;4.30;85.00;;;;;;5082404;28;20204;-83
2024/01/31 05:31:34;;;;;;;5.10;3.53;;;4.40;83.30;;;;;;5084787;28;20202;-83
2024/01/31 05:34:00;;;;;;;4.27;3.40;;;4.60;81.30;;;;;;5087386;28;20208;-83
2024/01/31 05:36:27;;;;;;;5.17;3.53;;;4.60;80.90;;;;;;5090447;28;20205;-82
2024/01/31 05:38:54;;;;;;;5.67;3.57;;;4.60;80.20;;;;;;5093585;28;20216;-79
2024/01/31 05:41:21;;;;;;;4.90;3.60;;;4.60;80.30;;;;;;5086647;28;20200;-82
2024/01/31 05:43:48;;;;;;;4.47;3.60;;;4.50;81.00;;;;;;5085108;28;20193;-82
2024/01/31 05:46:17;;;;;;;4.13;3.00;;;4.50;81.40;;;;;;5090419;28;20287;-82
2024/01/31 05:48:46;;;;;;;6.00;3.53;;;4.50;81.20;;;;;;5089195;28;20291;-81
2024/01/31 05:51:13;;;;;;;3.87;3.20;;;4.40;80.80;;;;;;5081949;28;20203;-81
2024/01/31 05:53:40;;;;;;;6.17;3.90;;;4.30;81.60;;;;;;5088441;28;20196;-79
2024/01/31 05:56:07;;;;;;;4.50;3.83;;;4.30;81.00;;;;;;5087181;28;20212;-81
2024/01/31 05:58:34;;;;;;;4.33;3.50;;;4.10;81.70;;;;;;5082510;28;20225;-81
2024/01/31 06:01:01;;;;;;;4.90;3.57;;;4.00;82.70;;;;;;5085776;28;20724;-81
2024/01/31 06:03:28;;;;;;;4.97;3.40;;;3.90;83.40;;;;;;5084229;28;20200;-81
2024/01/31 06:05:58;;;;;;;5.07;3.43;;;4.00;83.20;;;;;;5080374;28;20192;-80
2024/01/31 06:08:25;;;;;;;5.17;3.33;;;3.90;83.30;;;;;;5083467;28;20204;-81
2024/01/31 06:10:58;;;;;;;5.57;4.00;;;4.00;83.40;;;;;;5084200;28;20197;-81
2024/01/31 06:13:24;;;;;;;5.63;3.80;;;4.00;82.70;;;;;;5089014;28;20292;-78
2024/01/31 06:15:51;;;;;;;6.83;3.80;;;3.90;81.40;;;;;;5087952;28;20201;-78
2024/01/31 06:18:18;;;;;;;6.30;3.67;;;3.80;83.20;;;;;;5085204;28;20259;-78
2024/01/31 06:20:45;;;;;;;7.90;3.80;;;3.90;83.70;;;;;;5086225;28;20208;-80
2024/01/31 06:23:13;;;;;;;5.70;3.70;;;3.90;83.90;;;;;;5087092;28;20203;-83
2024/01/31 06:25:40;;;;;;;8.73;3.87;;;3.90;84.00;;;;;;5083072;28;20285;-86
2024/01/31 06:28:07;;;;;;;5.27;3.77;;;3.90;85.10;;;;;;5086830;28;20197;-86
2024/01/31 06:30:41;;;;;;;5.57;3.47;;;3.90;85.90;;;;;;5085730;28;20200;-85
2024/01/31 06:33:08;;;;;;;7.00;3.60;;;3.90;86.70;;;;;;5085493;28;20228;-81
2024/01/31 06:35:35;;;;;;;6.23;4.07;;;4.00;85.10;;;;;;5090140;28;20204;-79
2024/01/31 06:38:02;;;;;;;5.10;4.17;;;4.10;85.10;;;;;;5088402;28;20305;-81
2024/01/31 06:40:31;;;;;;;8.27;4.40;;;4.10;85.10;;;;;;5087680;28;20204;-81
2024/01/31 06:42:57;;;;;;;8.53;4.70;;;4.10;85.40;;;;;;5080303;28;20197;-81
2024/01/31 06:45:25;;;;;;;8.00;4.57;;;4.00;86.90;;;;;;5085786;28;20659;-80
2024/01/31 06:47:51;;;;;;;8.67;4.90;;;4.10;86.50;;;;;;5087118;28;20656;-80
2024/01/31 06:50:18;;;;;;;7.80;4.70;;;4.30;85.00;;;;;;5089407;28;20196;-80
2024/01/31 06:52:46;;;;;;;8.13;4.70;;;4.30;85.00;;;;;;5087016;28;20197;-80
2024/01/31 06:55:13;;;;;;;14.90;4.90;;;4.30;84.30;;;;;;5085872;28;20265;-80
2024/01/31 06:57:42;;;;;;;9.93;4.50;;;4.10;85.70;;;;;;5083667;28;20235;-80
2024/01/31 07:00:10;;;;;;;10.90;4.50;;;4.00;88.40;;;;;;5087842;28;20303;-80
2024/01/31 07:02:37;;;;;;;9.00;4.70;;;4.10;88.40;;;;;;5083654;28;20220;-80
2024/01/31 07:05:05;;;;;;;12.23;4.63;;;4.30;85.70;;;;;;5082746;28;20208;-80
2024/01/31 07:07:31;;;;;;;10.37;4.50;;;4.30;85.40;;;;;;5086172;28;20254;-80
2024/01/31 07:09:58;;;;;;;9.67;4.70;;;4.30;86.20;;;;;;5086014;28;20197;-80
2024/01/31 07:12:25;;;;;;;11.30;4.60;;;4.40;87.00;;;;;;5080397;28;20201;-80
2024/01/31 07:14:53;;;;;;;8.70;4.50;;;4.60;84.10;;;;;;5085656;28;20201;-80
2024/01/31 07:17:20;;;;;;;12.10;5.33;;;4.70;82.20;;;;;;5080682;28;20569;-80
2024/01/31 07:19:46;;;;;;;8.33;4.50;;;4.70;81.70;;;;;;5079948;28;20680;-80
2024/01/31 07:22:14;;;;;;;9.53;4.60;;;4.70;81.80;;;;;;5087824;28;20207;-80
2024/01/31 07:24:43;;;;;;;9.87;4.80;;;4.70;82.30;;;;;;5085781;28;20578;-80
2024/01/31 07:27:10;;;;;;;8.77;4.53;;;4.70;81.70;;;;;;5086406;28;20722;-80
2024/01/31 07:29:37;;;;;;;13.20;4.67;;;4.70;81.60;;;;;;5078483;28;20205;-82
2024/01/31 07:32:05;;;;;;;9.70;4.73;;;4.70;81.40;;;;;;5086603;28;20205;-82
2024/01/31 07:34:32;;;;;;;12.57;5.00;;;4.70;81.70;;;;;;5085452;28;20193;-82
2024/01/31 07:36:59;;;;;;;8.17;4.77;;;4.70;82.00;;;;;;5084483;28;20200;-79
2024/01/31 07:39:26;;;;;;;18.53;5.13;;;4.60;81.80;;;;;;5091256;28;20624;-79
2024/01/31 07:42:09;;;;;;;8.37;4.67;;;4.70;82.30;;;;;;5092324;28;20204;-81
2024/01/31 07:44:35;;;;;;;16.10;5.20;;;4.60;82.50;;;;;;5087369;28;20199;-81
2024/01/31 07:47:02;;;;;;;11.83;5.10;;;4.70;81.90;;;;;;5088605;28;20200;-82
2024/01/31 07:49:38;;;;;;;14.70;5.40;;;4.70;81.00;;;;;;5090504;28;20199;-79
2024/01/31 07:52:05;;;;;;;19.00;5.03;;;4.70;81.30;;;;;;5088957;28;20269;-80
2024/01/31 07:54:33;;;;;;;15.47;5.10;;;4.70;81.20;;;;;;5093452;28;20192;-80
2024/01/31 07:57:00;;;;;;;20.20;5.17;;;4.70;81.00;;;;;;5074713;28;20277;-79
2024/01/31 07:59:27;;;;;;;9.90;5.10;;;4.80;81.40;;;;;;5088087;28;20763;-82
2024/01/31 08:01:53;;;;;;;9.33;4.37;;;4.80;80.40;;;;;;5085245;28;20200;-79
2024/01/31 08:04:20;;;;;;;8.37;4.70;;;4.80;80.40;;;;;;5086183;28;20219;-83
2024/01/31 08:06:48;;;;;;;10.10;4.33;;;4.80;80.20;;;;;;5084147;28;20205;-82
2024/01/31 08:09:15;;;;;;;10.77;4.60;;;4.90;79.60;;;;;;5086955;28;20685;-82
2024/01/31 08:11:43;;;;;;;11.60;5.00;;;4.90;78.50;;;;;;5091967;28;20827;-81
2024/01/31 08:14:10;;;;;;;9.00;4.70;;;5.00;77.70;;;;;;5085371;28;20197;-81
2024/01/31 08:16:37;;;;;;;11.90;4.73;;;5.00;77.40;;;;;;5085312;28;20268;-82
2024/01/31 08:19:04;;;;;;;10.57;4.30;;;5.10;78.00;;;;;;5086441;28;20227;-82
2024/01/31 08:21:32;;;;;;;8.43;4.17;;;5.20;78.40;;;;;;5088779;28;20556;-82
2024/01/31 08:24:00;;;;;;;7.80;4.20;;;5.40;77.10;;;;;;5087442;28;20216;-83
2024/01/31 08:26:27;;;;;;;10.07;4.03;;;5.70;75.00;;;;;;5087001;28;20235;-80
2024/01/31 08:28:55;;;;;;;8.10;4.03;;;5.80;72.60;;;;;;5090276;28;20561;-80
2024/01/31 08:31:22;;;;;;;8.53;4.10;;;5.80;70.60;;;;;;5084828;28;20207;-81
2024/01/31 08:33:49;;;;;;;11.50;4.27;;;5.70;74.10;;;;;;5088585;28;20657;-81
2024/01/31 08:36:15;;;;;;;11.13;3.77;;;5.80;73.30;;;;;;5092334;28;20193;-80
2024/01/31 08:39:14;;;;;;;7.95;4.38;;;6.00;75.10;;;;;;5085909;28;20220;-80
2024/01/31 08:41:41;;;;;;;11.50;3.83;;;6.40;71.20;;;;;;5026793;28;20230;-80
2024/01/31 08:44:09;;;;;;;7.55;3.80;;;6.80;62.70;;;;;;5077720;28;20203;-81
2024/01/31 08:46:35;;;;;;;4.78;3.35;;;7.20;58.50;;;;;;5092389;28;20283;-80
2024/01/31 08:49:02;;;;;;;8.70;3.53;;;7.40;57.30;;;;;;5091742;28;20204;-80
2024/01/31 08:51:30;;;;;;;7.85;3.63;;;7.50;58.80;;;;;;5085783;28;20568;-81
2024/01/31 08:53:57;;;;;;;6.65;4.40;;;7.60;55.20;;;;;;5083456;28;20192;-80
2024/01/31 08:56:25;;;;;;;12.13;6.43;;;7.70;57.20;;;;;;5091645;28;20704;-80
2024/01/31 08:58:53;;;;;;;5.95;4.35;;;7.80;56.90;;;;;;5071930;28;20254;-81
2024/01/31 09:01:20;;;;;;;6.25;4.20;;;8.00;57.70;;;;;;5087759;28;20338;-80
2024/01/31 09:03:47;;;;;;;8.27;4.05;;;8.30;55.70;;;;;;5091774;28;20207;-80
2024/01/31 09:06:13;;;;;;;5.13;3.95;;;8.90;50.40;;;;;;5089874;28;20204;-81
2024/01/31 09:08:40;;;;;;;7.97;3.97;;;9.60;48.00;;;;;;5088795;28;20196;-81
2024/01/31 09:11:07;;;;;;;7.22;4.15;;;10.30;43.80;;;;;;5085030;28;20197;-84
2024/01/31 09:13:36;;;;;;;9.07;3.88;;;11.20;30.80;;;;;;5081223;28;20247;-84
2024/01/31 09:16:03;;;;;;;4.50;3.50;;;11.70;25.90;;;;;;5082306;28;20202;-81
2024/01/31 09:18:30;;;;;;;6.07;4.20;;;12.30;25.60;;;;;;5083547;28;20193;-81
2024/01/31 09:20:57;;;;;;;5.88;4.05;;;12.80;20.60;;;;;;5089486;28;20667;-81
2024/01/31 09:23:23;;;;;;;8.18;4.50;;;13.60;18.20;;;;;;5082627;28;20203;-82
2024/01/31 09:25:51;;;;;;;5.80;4.28;;;13.90;17.20;;;;;;5087947;28;20193;-82
2024/01/31 09:28:19;;;;;;;6.05;4.53;;;13.80;17.60;;;;;;5082977;28;20196;-81
2024/01/31 09:30:47;;;;;;;6.95;4.30;;;13.80;17.30;;;;;;5083085;28;20304;-81
2024/01/31 09:33:14;;;;;;;8.05;4.35;;;14.50;16.20;;;;;;5085761;28;20676;-79
2024/01/31 09:35:40;;;;;;;6.15;4.53;;;14.80;15.70;;;;;;5089013;28;20197;-79
2024/01/31 09:38:07;;;;;;;6.22;4.90;;;14.90;15.90;;;;;;5088559;28;20192;-79
2024/01/31 09:40:34;;;;;;;6.85;4.78;;;14.80;15.80;;;;;;5088987;28;20229;-80
2024/01/31 09:43:01;;;;;;;7.22;4.65;;;15.50;13.90;;;;;;5069020;28;20208;-81
2024/01/31 09:45:29;;;;;;;7.95;4.65;;;15.60;14.60;;;;;;5086814;28;20201;-80
2024/01/31 09:47:57;;;;;;;6.32;4.88;;;15.70;14.00;;;;;;5073595;28;20193;-80
2024/01/31 09:50:24;;;;;;;6.38;5.55;;;16.30;13.30;;;;;;5084800;28;20193;-80
2024/01/31 09:52:53;;;;;;;7.65;5.35;;;16.60;12.50;;;;;;5085420;28;20200;-77
2024/01/31 09:55:23;;;;;;;8.60;5.82;;;16.80;11.00;;;;;;5085084;28;20650;-78
2024/01/31 09:57:50;;;;;;;8.25;5.70;;;16.90;10.70;;;;;;5085876;28;20221;-78
2024/01/31 10:00:18;;;;;;;7.28;5.75;;;16.60;12.00;;;;;;5088525;28;20228;-78
2024/01/31 10:02:48;;;;;;;6.85;5.63;;;16.40;12.00;;;;;;5081530;28;20197;-79
2024/01/31 10:05:16;;;;;;;7.15;5.82;;;16.40;11.00;;;;;;5084752;28;20554;-78
2024/01/31 10:07:43;;;;;;;8.98;5.75;;;16.10;12.30;;;;;;5088559;28;20204;-77
2024/01/31 10:10:10;;;;;;;6.57;5.20;;;15.40;12.80;;;;;;5086907;28;20672;-78
2024/01/31 10:12:38;;;;;;;5.53;4.82;;;15.20;12.50;;;;;;5067452;28;20200;-78
2024/01/31 10:15:06;;;;;;;8.07;4.97;;;15.60;11.70;;;;;;5080771;28;20216;-80
2024/01/31 10:17:34;;;;;;;8.90;4.53;;;15.30;12.30;;;;;;5068695;28;20207;-80
2024/01/31 10:20:10;;;;;;;7.90;4.60;;;15.10;13.10;;;;;;5084330;28;20213;-80
2024/01/31 10:22:38;;;;;;;6.57;4.57;;;15.10;12.80;;;;;;5083637;28;20189;-81
2024/01/31 10:25:06;;;;;;;6.10;4.43;;;15.40;12.70;;;;;;5086234;28;20197;-80
2024/01/31 10:27:37;;;;;;;6.20;4.60;;;15.40;12.00;;;;;;5089998;28;20200;-80
2024/01/31 10:30:06;;;;;;;8.48;4.43;;;15.60;12.00;;;;;;5083687;28;20201;-80
2024/01/31 10:32:34;;;;;;;5.85;4.63;;;15.20;12.20;;;;;;5081495;28;20640;-80
2024/01/31 10:35:02;;;;;;;5.72;4.30;;;15.10;12.60;;;;;;5090002;28;20207;-80
2024/01/31 10:37:30;;;;;;;6.03;4.82;;;14.70;14.30;;;;;;5089953;28;20703;-80
2024/01/31 10:39:59;;;;;;;8.48;4.32;;;14.30;14.60;;;;;;5086459;28;20228;-80
2024/01/31 10:42:26;;;;;;;7.55;4.70;;;14.10;15.00;;;;;;5089115;28;20961;-84
2024/01/31 10:44:54;;;;;;;7.57;4.72;;;14.10;14.90;;;;;;5079360;28;20193;-82
2024/01/31 10:47:21;;;;;;;6.15;4.55;;;13.80;15.30;;;;;;5081904;28;20205;-82
2024/01/31 10:49:48;;;;;;;8.13;4.22;;;13.50;15.70;;;;;;5085504;28;20211;-83
2024/01/31 10:52:20;;;;;;;8.45;4.50;;;13.40;16.50;;;;;;5087691;28;20242;-82
2024/01/31 10:54:51;;;;;;;6.82;4.63;;;13.20;16.90;;;;;;5086700;28;20196;-82
2024/01/31 10:57:20;;;;;;;7.57;4.18;;;13.20;16.30;;;;;;5087463;28;20212;-82
2024/01/31 10:59:50;;;;;;;6.22;4.40;;;13.00;16.30;;;;;;5086025;28;20601;-82
2024/01/31 11:02:17;;;;;;;6.40;4.20;;;12.80;17.70;;;;;;5082567;28;20594;-81
2024/01/31 11:04:46;;;;;;;5.97;4.07;;;12.70;18.40;;;;;;5084934;28;20276;-82
2024/01/31 11:07:17;;;;;;;9.70;4.18;;;12.90;17.40;;;;;;5083861;28;20188;-82
2024/01/31 11:09:46;;;;;;;8.05;4.35;;;12.90;17.70;;;;;;5079533;28;20201;-82
2024/01/31 11:12:15;;;;;;;6.43;4.45;;;12.70;18.60;;;;;;5084465;28;20196;-82
2024/01/31 11:14:45;;;;;;;6.15;4.75;;;12.80;18.70;;;;;;5082719;28;20196;-83
2024/01/31 11:17:12;;;;;;;6.47;4.80;;;12.80;17.90;;;;;;5088218;28;20197;-82
2024/01/31 11:19:48;;;;;;;12.15;4.82;;;12.70;18.20;;;;;;5077878;28;20609;-82
2024/01/31 11:22:15;;;;;;;11.20;4.88;;;12.80;18.90;;;;;;5083325;28;20196;-82
2024/01/31 11:24:45;;;;;;;6.40;4.82;;;12.80;17.70;;;;;;5086350;28;20204;-82
2024/01/31 11:27:13;;;;;;;6.57;4.30;;;12.80;18.30;;;;;;5081896;28;20208;-82
2024/01/31 11:29:40;;;;;;;6.95;4.90;;;12.60;19.00;;;;;;5076546;28;20605;-82
2024/01/31 11:32:09;;;;;;;6.22;4.47;;;12.60;19.80;;;;;;5086101;28;20850;-82
2024/01/31 11:34:36;;;;;;;10.95;4.85;;;12.50;20.20;;;;;;5079935;28;20193;-82
2024/01/31 11:37:03;;;;;;;7.50;4.57;;;12.50;20.60;;;;;;5081449;28;20201;-82
2024/01/31 11:39:29;;;;;;;6.13;4.60;;;12.50;19.90;;;;;;5086014;28;20709;-82
2024/01/31 11:41:56;;;;;;;7.03;4.60;;;12.60;19.00;;;;;;5076424;28;20650;-82
2024/01/31 11:44:23;;;;;;;5.90;4.55;;;12.60;19.00;;;;;;5086515;28;20193;-82
2024/01/31 11:46:51;;;;;;;8.85;4.53;;;12.70;19.70;;;;;;5086453;28;20205;-82
2024/01/31 11:49:19;;;;;;;7.82;4.47;;;12.70;19.80;;;;;;5079491;28;20837;-81
2024/01/31 11:51:45;;;;;;;8.00;5.07;;;12.70;19.30;;;;;;5085981;28;20197;-82
2024/01/31 11:54:12;;;;;;;30.75;20.98;;;12.80;18.80;;;;;;5081170;28;20203;-82
2024/01/31 11:56:39;;;;;;;7.63;5.68;;;12.80;19.00;;;;;;5083279;28;20692;-81
2024/01/31 11:59:06;;;;;;;6.55;4.45;;;12.70;19.20;;;;;;5078091;28;20213;-82
2024/01/31 12:01:34;;;;;;;7.13;4.72;;;12.60;19.20;;;;;;5049179;28;20220;-82
2024/01/31 12:04:02;;;;;;;9.75;4.50;;;12.50;19.90;;;;;;5073832;28;20210;-83
2024/01/31 12:06:31;;;;;;;5.70;4.20;;;12.50;21.30;;;;;;5077134;28;20679;-82
2024/01/31 12:09:01;;;;;;;7.13;4.45;;;12.60;20.80;;;;;;5062612;28;20201;-82
2024/01/31 12:11:28;;;;;;;8.10;4.63;;;12.80;20.00;;;;;;5084742;28;20532;-81
2024/01/31 12:13:55;;;;;;;8.15;4.38;;;12.70;20.00;;;;;;5088909;28;20201;-82
2024/01/31 12:16:22;;;;;;;7.30;4.15;;;12.70;21.70;;;;;;5065429;28;20201;-81
2024/01/31 12:19:02;;;;;;;9.18;4.68;;;12.60;22.80;;;;;;5077071;28;21613;-81
2024/01/31 12:22:04;;;;;;;;;;;;;;;;;;;;;
2024/01/31 12:24:31;;;;;;;6.82;4.32;;;12.40;20.90;;;;;;5080611;28;20583;-82
2024/01/31 12:26:58;;;;;;;7.75;4.95;;;12.60;22.20;;;;;;5087495;28;20204;-81
2024/01/31 12:29:25;;;;;;;6.97;4.07;;;12.70;22.30;;;;;;5088069;28;20193;-82
2024/01/31 12:31:52;;;;;;;24.95;17.85;;;12.80;21.50;;;;;;5085821;28;20216;-82
2024/01/31 12:34:19;;;;;;;5.85;4.15;;;13.00;20.60;;;;;;5085610;28;20196;-82
2024/01/31 12:36:47;;;;;;;6.85;4.63;;;13.20;21.60;;;;;;5087757;28;20192;-83
2024/01/31 12:39:17;;;;;;;6.57;4.10;;;13.10;21.50;;;;;;5076208;28;20283;-82
2024/01/31 12:41:44;;;;;;;6.45;4.70;;;13.10;22.30;;;;;;5083815;28;20221;-82
2024/01/31 12:44:18;;;;;;;9.15;4.82;;;13.00;21.50;;;;;;5085276;28;20637;-81
2024/01/31 12:46:45;;;;;;;8.93;4.57;;;12.90;21.70;;;;;;5088608;28;20563;-81
2024/01/31 12:49:12;;;;;;;8.25;4.88;;;13.00;21.90;;;;;;5092099;28;20204;-82
2024/01/31 12:51:39;;;;;;;7.50;4.97;;;13.20;21.60;;;;;;5087775;28;20200;-82
2024/01/31 12:54:07;;;;;;;9.68;5.10;;;13.50;20.40;;;;;;5088119;28;20210;-80
2024/01/31 12:56:34;;;;;;;8.98;4.78;;;13.70;20.30;;;;;;5088269;28;20231;-82